createdAt,value
2022-11-08T00:01:17.510Z,91.75
2022-11-08T00:04:23.128Z,92.41
2022-11-08T00:07:44.365Z,92.46
2022-11-08T00:11:07.756Z,92.27
2022-11-08T00:14:12.254Z,92.26
2022-11-08T00:17:17.838Z,91.96
2022-11-08T00:20:23.353Z,91.96
2022-11-08T00:23:27.812Z,91.89
2022-11-08T00:26:34.070Z,91.85
2022-11-08T00:29:39.845Z,90.97
2022-11-08T00:32:44.495Z,90.97
2022-11-08T00:35:49.351Z,91.26
2022-11-08T00:38:54.162Z,91.51
2022-11-08T00:42:01.334Z,91.32
2022-11-08T00:45:06.189Z,91.11
2022-11-08T00:48:10.950Z,90.46
2022-11-08T00:51:15.664Z,90.43
2022-11-08T00:54:22.687Z,89.70
2022-11-08T00:57:53.515Z,88.84
2022-11-08T01:00:54.734Z,88.64
2022-11-08T01:03:59.660Z,89.18
2022-11-08T01:07:04.746Z,88.42
2022-11-08T01:10:10.218Z,89.17
2022-11-08T01:13:16.986Z,89.46
2022-11-08T01:16:23.283Z,89.83
2022-11-08T01:19:28.052Z,90.11
2022-11-08T01:22:34.211Z,90.10
2022-11-08T01:25:39.535Z,90.39
2022-11-08T01:28:46.298Z,90.44
2022-11-08T01:31:51.113Z,91.04
2022-11-08T01:34:56.023Z,91.01
2022-11-08T01:38:00.975Z,90.99
2022-11-08T01:41:05.832Z,91.08
2022-11-08T01:44:18.265Z,90.53
2022-11-08T01:47:23.082Z,89.91
2022-11-08T01:50:28.207Z,89.85
2022-11-08T01:53:32.990Z,89.93
2022-11-08T01:56:38.943Z,90.27
2022-11-08T01:59:50.009Z,90.61
2022-11-08T02:02:59.550Z,89.85
2022-11-08T02:06:06.294Z,89.86
2022-11-08T02:09:14.053Z,90.30
2022-11-08T02:12:23.104Z,89.34
2022-11-08T02:15:30.085Z,89.52
2022-11-08T02:18:34.697Z,90.25
2022-11-08T02:21:44.405Z,90.77
2022-11-08T02:24:50.482Z,90.89
2022-11-08T02:27:55.157Z,90.83
2022-11-08T02:31:00.961Z,90.78
2022-11-08T02:34:05.466Z,90.59
2022-11-08T02:37:10.725Z,91.23
2022-11-08T02:40:16.944Z,91.38
2022-11-08T02:43:20.676Z,91.77
2022-11-08T02:46:23.334Z,91.69
2022-11-08T02:49:26.013Z,91.22
2022-11-08T02:52:28.824Z,91.27
2022-11-08T02:55:33.022Z,91.02
2022-11-08T02:58:35.775Z,90.83
2022-11-08T03:01:38.519Z,90.74
2022-11-08T03:04:41.244Z,91.33
2022-11-08T03:07:43.848Z,90.84
2022-11-08T03:10:48.176Z,90.21
2022-11-08T03:13:50.887Z,90.31
2022-11-08T03:16:53.503Z,90.66
2022-11-08T03:19:56.146Z,89.77
2022-11-08T03:22:59.653Z,89.77
2022-11-08T03:26:04.693Z,89.42
2022-11-08T03:29:07.503Z,90.43
2022-11-08T03:32:10.289Z,91.02
2022-11-08T03:35:12.917Z,91.47
2022-11-08T03:38:16.761Z,90.68
2022-11-08T03:41:20.984Z,90.54
2022-11-08T03:44:23.663Z,90.30
2022-11-08T03:47:26.363Z,89.21
2022-11-08T03:50:28.995Z,89.38
2022-11-08T03:53:31.628Z,89.47
2022-11-08T03:56:35.581Z,89.36
2022-11-08T03:59:38.188Z,89.72
2022-11-08T04:02:41.476Z,89.74
2022-11-08T04:05:44.177Z,90.53
2022-11-08T04:08:47.036Z,90.54
2022-11-08T04:12:08.895Z,89.94
2022-11-08T04:15:17.591Z,89.09
2022-11-08T04:18:37.680Z,88.79
2022-11-08T04:21:43.870Z,88.45
2022-11-08T04:24:46.485Z,87.26
2022-11-08T04:27:50.439Z,87.77
2022-11-08T04:30:57.830Z,88.25
2022-11-08T04:34:00.456Z,88.59
2022-11-08T04:37:03.190Z,88.75
2022-11-08T04:40:06.692Z,89.13
2022-11-08T04:43:10.744Z,88.48
2022-11-08T04:46:15.257Z,88.89
2022-11-08T04:49:17.954Z,90.22
2022-11-08T04:52:20.660Z,90.16
2022-11-08T04:55:23.684Z,90.37
2022-11-08T04:58:27.672Z,90.43
2022-11-08T05:01:32.181Z,89.98
2022-11-08T05:04:34.925Z,90.49
2022-11-08T05:07:37.558Z,90.06
2022-11-08T05:10:40.188Z,90.62
2022-11-08T05:13:44.742Z,91.24
2022-11-08T05:16:47.404Z,90.85
2022-11-08T05:20:06.901Z,90.66
2022-11-08T05:23:26.034Z,90.71
2022-11-08T05:26:29.593Z,91.33
2022-11-08T05:29:38.537Z,91.17
2022-11-08T05:32:43.798Z,91.15
2022-11-08T05:35:46.468Z,91.82
2022-11-08T05:38:49.114Z,92.02
2022-11-08T05:41:51.719Z,91.50
2022-11-08T05:44:55.733Z,92.18
2022-11-08T05:48:03.540Z,92.38
2022-11-08T05:51:06.890Z,92.45
2022-11-08T05:54:09.616Z,92.04
2022-11-08T05:57:12.258Z,92.80
2022-11-08T06:00:16.923Z,92.27
2022-11-08T06:03:22.565Z,92.44
2022-11-08T06:06:26.548Z,91.46
2022-11-08T06:09:29.224Z,91.75
2022-11-08T06:12:31.920Z,91.88
2022-11-08T06:15:35.953Z,91.28
2022-11-08T06:18:39.396Z,91.58
2022-11-08T06:21:42.016Z,91.54
2022-11-08T06:24:44.653Z,91.29
2022-11-08T06:27:47.344Z,91.25
2022-11-08T06:30:53.846Z,91.96
2022-11-08T06:33:56.483Z,92.14
2022-11-08T06:37:00.266Z,92.31
2022-11-08T06:40:02.854Z,91.89
2022-11-08T06:43:06.084Z,92.27
2022-11-08T06:46:10.035Z,91.82
2022-11-08T06:49:12.679Z,92.24
2022-11-08T06:52:15.300Z,92.16
2022-11-08T06:55:18.105Z,92.45
2022-11-08T06:58:20.707Z,91.96
2022-11-08T07:01:24.829Z,92.09
2022-11-08T07:04:27.552Z,92.13
2022-11-08T07:07:30.150Z,92.21
2022-11-08T07:10:34.048Z,92.38
2022-11-08T07:13:36.941Z,92.63
2022-11-08T07:16:41.984Z,92.74
2022-11-08T07:19:44.629Z,92.82
2022-11-08T07:22:47.408Z,93.40
2022-11-08T07:25:50.056Z,93.01
2022-11-08T07:28:52.711Z,93.78
2022-11-08T07:31:56.712Z,93.81
2022-11-08T07:34:59.332Z,93.82
2022-11-08T07:38:01.966Z,93.88
2022-11-08T07:41:04.909Z,92.90
2022-11-08T07:44:07.533Z,92.51
2022-11-08T07:47:11.485Z,92.16
2022-11-08T07:50:17.642Z,92.15
2022-11-08T07:53:21.032Z,92.21
2022-11-08T07:56:23.728Z,93.12
2022-11-08T07:59:26.415Z,93.47
2022-11-08T08:02:30.657Z,93.64
2022-11-08T08:05:35.833Z,94.21
2022-11-08T08:08:38.515Z,93.92
2022-11-08T08:11:41.143Z,91.06
2022-11-08T08:14:43.879Z,90.32
2022-11-08T08:17:47.875Z,90.09
2022-11-08T08:20:52.635Z,89.49
2022-11-08T08:23:55.285Z,87.19
2022-11-08T08:26:57.920Z,86.77
2022-11-08T08:30:00.564Z,86.41
2022-11-08T08:36:29.759Z,84.24
2022-11-08T08:39:32.416Z,84.52
2022-11-08T08:42:35.640Z,84.80
2022-11-08T08:45:38.784Z,84.30
2022-11-08T08:48:42.893Z,83.77
2022-11-08T08:51:45.573Z,82.76
2022-11-08T08:54:48.182Z,81.72
2022-11-08T08:57:50.841Z,81.32
2022-11-08T09:04:17.463Z,81.77
2022-11-08T09:07:20.187Z,82.24
2022-11-08T09:10:23.997Z,81.70
2022-11-08T09:13:28.101Z,83.35
2022-11-08T09:16:30.746Z,83.28
2022-11-08T09:19:34.963Z,82.17
2022-11-08T09:22:38.312Z,81.19
2022-11-08T09:25:40.985Z,81.11
2022-11-08T09:28:43.737Z,78.42
2022-11-08T09:31:46.341Z,74.55
2022-11-08T09:34:50.355Z,73.22
2022-11-08T09:37:54.352Z,73.03
2022-11-08T09:41:14.981Z,70.71
2022-11-08T09:44:37.439Z,69.99
2022-11-08T09:47:42.427Z,68.39
2022-11-08T09:50:47.967Z,66.42
2022-11-08T09:53:53.994Z,65.30
2022-11-08T09:56:56.707Z,65.17
2022-11-08T10:00:03.714Z,65.15
2022-11-08T10:03:06.597Z,65.30
2022-11-08T10:06:33.519Z,65.53
2022-11-08T10:09:49.783Z,65.42
2022-11-08T10:13:02.861Z,66.05
2022-11-08T10:16:17.689Z,65.97
2022-11-08T10:19:45.060Z,66.73
2022-11-08T10:22:55.697Z,67.78
2022-11-08T10:26:01.769Z,68.17
2022-11-08T10:29:09.526Z,68.91
2022-11-08T10:32:19.987Z,68.92
2022-11-08T10:35:28.168Z,69.04
2022-11-08T10:38:40.768Z,69.83
2022-11-08T10:41:49.150Z,71.40
2022-11-08T10:44:51.876Z,73.73
2022-11-08T10:47:55.957Z,75.09
2022-11-08T10:50:58.656Z,75.20
2022-11-08T10:54:02.740Z,70.35
2022-11-08T10:57:05.666Z,69.47
2022-11-08T11:00:27.286Z,67.53
2022-11-08T11:03:30.486Z,67.51
2022-11-08T11:06:34.504Z,66.50
2022-11-08T11:09:38.777Z,68.94
2022-11-08T11:12:41.564Z,72.80
2022-11-08T11:15:48.447Z,72.22
2022-11-08T11:18:51.440Z,71.79
2022-11-08T11:21:58.386Z,70.65
2022-11-08T11:25:14.806Z,66.20
2022-11-08T11:28:17.726Z,67.02
2022-11-08T11:31:22.188Z,68.23
2022-11-08T11:34:54.638Z,68.35
2022-11-08T11:38:01.536Z,66.53
2022-11-08T11:41:12.765Z,63.19
2022-11-08T11:44:21.543Z,61.68
2022-11-08T11:47:32.109Z,60.75
2022-11-08T11:50:36.675Z,60.05
2022-11-08T11:53:43.525Z,57.89
2022-11-08T11:56:57.593Z,59.73
2022-11-08T12:00:06.704Z,60.77
2022-11-08T12:03:26.737Z,60.67
2022-11-08T12:06:39.508Z,61.61
2022-11-08T12:10:03.426Z,61.27
2022-11-08T12:13:18.897Z,61.62
2022-11-08T12:16:27.133Z,61.34
2022-11-08T12:19:46.483Z,61.54
2022-11-08T12:23:08.739Z,60.80
2022-11-08T12:26:21.957Z,60.39
2022-11-08T12:29:30.923Z,62.16
2022-11-08T12:32:52.602Z,63.47
2022-11-08T12:36:10.598Z,61.17
2022-11-08T12:39:23.896Z,61.68
2022-11-08T12:42:47.658Z,57.01
2022-11-08T12:46:08.555Z,53.71
2022-11-08T12:49:27.938Z,52.78
2022-11-08T12:52:46.384Z,50.04
2022-11-08T12:55:49.969Z,49.60
2022-11-08T12:58:54.552Z,50.20
2022-11-08T13:02:01.696Z,51.04
2022-11-08T13:05:09.640Z,49.27
2022-11-08T13:08:17.419Z,47.52
2022-11-08T13:11:28.137Z,46.32
2022-11-08T13:14:31.726Z,48.34
2022-11-08T13:17:35.917Z,47.12
2022-11-08T13:20:40.620Z,46.67
2022-11-08T13:23:43.270Z,47.06
2022-11-08T13:26:46.291Z,48.54
2022-11-08T13:29:48.970Z,49.20
2022-11-08T13:32:59.142Z,48.96
2022-11-08T13:36:14.973Z,49.95
2022-11-08T13:39:33.533Z,50.37
2022-11-08T13:42:56.102Z,51.70
2022-11-08T13:46:42.916Z,51.93
2022-11-08T13:49:46.906Z,53.82
2022-11-08T13:53:05.082Z,52.74
2022-11-08T13:56:45.656Z,53.41
2022-11-08T13:59:58.618Z,54.92
2022-11-08T14:03:24.646Z,54.88
2022-11-08T14:06:37.031Z,55.98
2022-11-08T14:09:48.468Z,55.66
2022-11-08T14:12:56.502Z,54.63
2022-11-08T14:16:04.862Z,55.51
2022-11-08T14:19:19.811Z,53.97
2022-11-08T14:22:25.729Z,53.99
2022-11-08T14:25:31.884Z,53.39
2022-11-08T14:28:36.520Z,54.23
2022-11-08T14:31:39.218Z,54.70
2022-11-08T14:34:41.954Z,54.24
2022-11-08T14:37:46.017Z,53.90
2022-11-08T14:40:50.691Z,52.70
2022-11-08T14:43:55.166Z,53.69
2022-11-08T14:46:59.148Z,55.48
2022-11-08T14:50:05.270Z,54.59
2022-11-08T14:53:39.738Z,53.55
2022-11-08T14:56:48.510Z,53.86
2022-11-08T14:59:56.708Z,54.07
2022-11-08T15:03:10.251Z,53.29
2022-11-08T15:06:16.110Z,54.50
2022-11-08T15:09:28.686Z,55.45
2022-11-08T15:12:38.628Z,56.43
2022-11-08T15:15:51.395Z,55.91
2022-11-08T15:19:00.323Z,57.46
2022-11-08T15:22:22.972Z,61.70
2022-11-08T15:25:36.475Z,64.44
2022-11-08T15:28:43.634Z,66.43
2022-11-08T15:32:00.063Z,67.46
2022-11-08T15:35:10.145Z,68.68
2022-11-08T15:38:33.900Z,69.87
2022-11-08T15:41:45.925Z,70.69
2022-11-08T15:45:07.029Z,71.15
2022-11-08T15:48:24.134Z,71.72
2022-11-08T15:51:30.828Z,72.58
2022-11-08T15:54:40.181Z,73.37
2022-11-08T15:57:57.812Z,73.43
2022-11-08T16:01:09.397Z,73.91
2022-11-08T16:04:16.867Z,74.44
2022-11-08T16:07:27.054Z,75.35
2022-11-08T16:10:39.123Z,75.86
2022-11-08T16:13:49.986Z,76.64
2022-11-08T16:16:58.569Z,76.85
2022-11-08T16:20:05.232Z,77.83
2022-11-08T16:23:15.435Z,77.99
2022-11-08T16:26:31.868Z,78.19
2022-11-08T16:29:45.435Z,77.90
2022-11-08T16:33:00.810Z,78.20
2022-11-08T16:36:21.358Z,78.51
2022-11-08T16:39:34.095Z,78.95
2022-11-08T16:42:42.418Z,79.42
2022-11-08T16:46:05.097Z,79.57
2022-11-08T16:49:26.064Z,80.24
2022-11-08T16:52:33.887Z,80.59
2022-11-08T16:55:42.689Z,80.92
2022-11-08T16:58:48.335Z,81.02
2022-11-08T17:01:57.385Z,81.61
2022-11-08T17:05:04.861Z,81.73
2022-11-08T17:08:14.561Z,82.63
2022-11-08T17:11:29.623Z,82.73
2022-11-08T17:14:37.888Z,82.84
2022-11-08T17:17:48.204Z,83.39
2022-11-08T17:21:07.598Z,83.69
2022-11-08T17:24:27.043Z,83.52
2022-11-08T17:27:33.486Z,83.29
2022-11-08T17:30:44.828Z,81.20
2022-11-08T17:33:52.375Z,79.08
2022-11-08T17:37:01.821Z,78.17
2022-11-08T17:40:08.854Z,77.87
2022-11-08T17:43:17.691Z,78.19
2022-11-08T17:46:23.974Z,77.32
2022-11-08T17:49:32.268Z,77.74
2022-11-08T17:52:46.406Z,78.86
2022-11-08T17:55:56.917Z,79.81
2022-11-08T17:59:04.449Z,79.96
2022-11-08T18:02:10.371Z,80.20
2022-11-08T18:05:25.704Z,80.09
2022-11-08T18:08:36.847Z,80.47
2022-11-08T18:11:48.991Z,80.57
2022-11-08T18:14:55.240Z,80.83
2022-11-08T18:18:04.213Z,80.87
2022-11-08T18:21:12.382Z,81.40
2022-11-08T18:24:18.707Z,81.86
2022-11-08T18:27:27.166Z,82.30
2022-11-08T18:30:38.088Z,82.33
2022-11-08T18:33:46.993Z,83.14
2022-11-08T18:37:01.945Z,83.70
2022-11-08T18:40:12.159Z,84.17
2022-11-08T18:43:29.734Z,83.75
2022-11-08T18:46:41.851Z,84.18
2022-11-08T18:49:49.360Z,84.11
2022-11-08T18:53:03.301Z,83.99
2022-11-08T18:56:12.321Z,84.30
2022-11-08T18:59:19.358Z,83.89
2022-11-08T19:02:30.795Z,83.97
2022-11-08T19:05:37.230Z,84.70
2022-11-08T19:08:58.098Z,84.82
2022-11-08T19:12:10.448Z,85.86
2022-11-08T19:15:18.923Z,86.15
2022-11-08T19:18:23.710Z,86.18
2022-11-08T19:21:30.792Z,86.50
2022-11-08T19:24:38.965Z,86.79
2022-11-08T19:27:45.050Z,86.76
2022-11-08T19:30:57.979Z,86.95
2022-11-08T19:34:15.407Z,87.58
2022-11-08T19:37:22.435Z,87.88
2022-11-08T19:40:33.387Z,88.07
2022-11-08T19:43:40.343Z,88.18
2022-11-08T19:46:46.610Z,88.45
2022-11-08T19:49:52.871Z,87.97
2022-11-08T19:53:06.598Z,88.27
2022-11-08T19:56:43.474Z,88.47
2022-11-08T19:59:51.972Z,88.72
2022-11-08T20:02:59.424Z,88.09
2022-11-08T20:06:07.576Z,88.43
2022-11-08T20:09:15.887Z,88.46
2022-11-08T20:12:25.128Z,87.53
2022-11-08T20:15:33.546Z,87.55
2022-11-08T20:18:39.224Z,88.02
2022-11-08T20:21:49.570Z,87.69
2022-11-08T20:25:01.666Z,87.80
2022-11-08T20:28:12.639Z,87.81
2022-11-08T20:31:25.512Z,87.90
2022-11-08T20:34:32.355Z,87.62
2022-11-08T20:37:39.648Z,87.80
2022-11-08T20:40:48.355Z,87.84
2022-11-08T20:43:59.542Z,87.43
2022-11-08T20:47:09.594Z,87.77
2022-11-08T20:50:19.345Z,87.46
2022-11-08T20:53:28.485Z,87.07
2022-11-08T20:56:37.921Z,87.23
2022-11-08T20:59:54.528Z,87.21
2022-11-08T21:03:05.100Z,86.77
2022-11-08T21:06:16.888Z,86.80
2022-11-08T21:09:37.427Z,87.33
2022-11-08T21:12:56.029Z,87.25
2022-11-08T21:16:28.215Z,87.07
2022-11-08T21:19:35.923Z,86.32
2022-11-08T21:22:43.981Z,86.19
2022-11-08T21:25:55.298Z,86.49
2022-11-08T21:29:01.641Z,87.14
2022-11-08T21:32:16.322Z,87.09
2022-11-08T21:35:28.126Z,86.24
2022-11-08T21:38:36.054Z,86.71
2022-11-08T21:41:44.625Z,86.54
2022-11-08T21:44:53.786Z,86.17
2022-11-08T21:48:11.141Z,86.30
2022-11-08T21:51:22.836Z,87.03
2022-11-08T21:54:33.623Z,86.63
2022-11-08T21:57:40.447Z,87.15
2022-11-08T22:00:55.966Z,86.80
2022-11-08T22:04:09.928Z,86.65
2022-11-08T22:07:19.083Z,85.99
2022-11-08T22:10:27.067Z,86.33
2022-11-08T22:13:33.535Z,86.08
2022-11-08T22:16:40.865Z,86.62
2022-11-08T22:19:49.448Z,87.21
2022-11-08T22:22:55.856Z,86.45
2022-11-08T22:26:03.520Z,87.00
2022-11-08T22:29:12.159Z,86.81
2022-11-08T22:32:18.818Z,86.45
2022-11-08T22:35:26.213Z,86.30
2022-11-08T22:38:31.968Z,86.64
2022-11-08T22:41:38.337Z,86.64
2022-11-08T22:44:46.368Z,86.95
2022-11-08T22:47:52.791Z,87.82
2022-11-08T22:51:04.721Z,88.23
2022-11-08T22:54:13.952Z,87.72
2022-11-08T22:57:29.025Z,88.36
2022-11-08T23:00:37.324Z,88.44
2022-11-08T23:03:51.803Z,88.59
2022-11-08T23:07:01.210Z,88.67
2022-11-08T23:10:12.049Z,88.73
2022-11-08T23:13:35.860Z,88.73
2022-11-08T23:16:49.329Z,88.85
2022-11-08T23:20:12.612Z,88.23
2022-11-08T23:23:46.221Z,88.53
2022-11-08T23:27:13.463Z,88.73
2022-11-08T23:30:39.246Z,89.06
2022-11-08T23:33:50.717Z,89.12
2022-11-08T23:36:59.239Z,89.02
2022-11-08T23:40:23.977Z,89.42
2022-11-08T23:43:49.650Z,89.43
2022-11-08T23:46:57.011Z,89.21
2022-11-08T23:50:04.677Z,89.84
2022-11-08T23:53:11.896Z,90.12
2022-11-08T23:56:26.324Z,89.45
2022-11-08T23:59:32.725Z,90.09
